Time;durP1;ratioP1;P1;durP2;ratioP2;P2;SDS_P1;SDS_P2;PMS_P1;PMS_P2;Temp;Humidity;BMP_temperature;BMP_pressure;BME280_temperature;BME280_humidity;BME280_pressure;Samples;Min_cycle;Max_cycle;Signal;HPM_P1;HPM_P2
2024/01/19 00:00:44;;;;;;;21.38;10.57;;;;;;;0.76;83.16;101223.25;5030230;28;20049;-59
2024/01/19 00:03:12;;;;;;;20.65;11.25;;;;;;;0.93;83.44;101234.19;5029995;28;20053;-53
2024/01/19 00:05:39;;;;;;;19.65;11.70;;;;;;;0.92;83.17;101235.28;5031108;28;20052;-60
2024/01/19 00:08:06;;;;;;;25.20;12.00;;;;;;;0.80;83.16;101229.84;5031617;28;20057;-58
2024/01/19 00:10:33;;;;;;;22.05;11.43;;;;;;;0.79;84.42;101235.50;5024082;28;20054;-59
2024/01/19 00:13:01;;;;;;;20.95;11.48;;;;;;;0.70;84.01;101240.47;5032315;28;20045;-60
2024/01/19 00:15:34;;;;;;;23.10;12.05;;;;;;;0.90;84.89;101246.38;5046040;28;20049;-57
2024/01/19 00:18:08;;;;;;;21.95;11.68;;;;;;;0.62;83.46;101240.00;5025465;28;20520;-58
2024/01/19 00:20:37;;;;;;;19.83;11.27;;;;;;;0.50;84.87;101248.13;5035375;28;20049;-57
2024/01/19 00:23:04;;;;;;;20.77;11.35;;;;;;;0.37;85.60;101240.22;5048863;28;20061;-57
2024/01/19 00:25:31;;;;;;;23.02;11.15;;;;;;;0.62;85.49;101250.84;5044021;28;20064;-59
2024/01/19 00:27:59;;;;;;;17.83;10.93;;;;;;;1.13;84.85;101251.75;5036163;28;20469;-58
2024/01/19 00:30:27;;;;;;;24.35;11.43;;;;;;;1.42;82.91;101255.34;5038586;28;20041;-58
2024/01/19 00:32:54;;;;;;;26.02;11.30;;;;;;;1.48;82.13;101254.41;5037840;28;20057;-60
2024/01/19 00:35:21;;;;;;;20.20;11.38;;;;;;;1.44;81.25;101257.81;5035669;28;20064;-59
2024/01/19 00:37:49;;;;;;;19.30;11.60;;;;;;;1.55;81.61;101267.81;5048851;28;20053;-56
2024/01/19 00:40:17;;;;;;;18.10;10.30;;;;;;;1.79;80.93;101262.06;5023960;28;20065;-60
2024/01/19 00:42:44;;;;;;;26.42;11.45;;;;;;;1.78;80.65;101259.59;5043135;28;20064;-60
2024/01/19 00:45:12;;;;;;;24.20;10.73;;;;;;;1.93;79.97;101259.88;5042260;28;20053;-59
2024/01/19 00:47:39;;;;;;;18.98;9.77;;;;;;;1.79;78.99;101258.53;5037025;28;20060;-59
2024/01/19 00:50:09;;;;;;;18.73;10.23;;;;;;;1.74;79.21;101264.69;5029736;28;20042;-58
2024/01/19 00:52:36;;;;;;;20.77;10.75;;;;;;;1.71;79.12;101277.94;5032188;28;20057;-59
2024/01/19 00:55:04;;;;;;;17.58;9.60;;;;;;;1.52;78.82;101274.53;5046725;28;20057;-60
2024/01/19 00:57:32;;;;;;;19.30;9.98;;;;;;;1.49;79.04;101275.03;5038373;28;20060;-59
2024/01/19 00:59:59;;;;;;;16.90;9.38;;;;;;;1.47;79.70;101277.16;5029662;28;20073;-59
2024/01/19 01:02:27;;;;;;;21.98;10.68;;;;;;;1.54;79.42;101280.56;5032816;28;20053;-62
2024/01/19 01:04:55;;;;;;;19.55;9.93;;;;;;;1.68;79.37;101273.78;5035784;28;20053;-59
2024/01/19 01:07:23;;;;;;;17.95;9.70;;;;;;;1.46;79.15;101267.38;5029768;28;20065;-58
2024/01/19 01:09:50;;;;;;;18.15;9.80;;;;;;;1.36;79.78;101271.75;5039657;28;20041;-56
2024/01/19 01:12:18;;;;;;;20.23;10.52;;;;;;;1.24;79.96;101274.47;5040512;28;20479;-59
2024/01/19 01:14:46;;;;;;;17.08;9.98;;;;;;;1.44;80.10;101287.66;5040005;28;20068;-58
2024/01/19 01:17:14;;;;;;;27.77;10.60;;;;;;;1.54;79.91;101293.31;5041729;28;20154;-58
2024/01/19 01:19:42;;;;;;;23.00;10.25;;;;;;;1.38;79.83;101297.59;5041843;28;20061;-58
2024/01/19 01:22:12;;;;;;;19.30;10.02;;;;;;;1.74;79.40;101301.88;5036070;28;20045;-57
2024/01/19 01:24:39;;;;;;;19.35;10.25;;;;;;;1.36;79.14;101302.41;5037452;28;20053;-56
2024/01/19 01:27:07;;;;;;;17.00;9.85;;;;;;;1.64;79.18;101305.19;5043221;28;20060;-58
2024/01/19 01:29:34;;;;;;;18.23;10.60;;;;;;;1.37;79.09;101306.81;5038959;28;20049;-55
2024/01/19 01:32:01;;;;;;;21.90;11.25;;;;;;;1.49;79.87;101315.75;5018900;28;20053;-59
2024/01/19 01:34:29;;;;;;;17.63;10.00;;;;;;;1.65;79.42;101323.16;5034357;28;20057;-59
2024/01/19 01:36:56;;;;;;;19.90;10.63;;;;;;;1.48;79.51;101327.69;5031038;28;20056;-57
2024/01/19 01:39:24;;;;;;;23.90;10.50;;;;;;;1.43;79.76;101327.53;5029990;28;20064;-59
2024/01/19 01:41:51;;;;;;;21.95;10.77;;;;;;;1.54;79.73;101328.59;5029995;28;20580;-58
2024/01/19 01:44:18;;;;;;;18.58;10.85;;;;;;;1.55;79.44;101322.13;5029834;28;20061;-60
2024/01/19 01:46:46;;;;;;;19.13;10.38;;;;;;;1.36;79.71;101332.28;5010316;28;20064;-58
2024/01/19 01:49:16;;;;;;;16.70;10.50;;;;;;;1.49;79.44;101337.47;5029655;28;20061;-64
2024/01/19 01:51:45;;;;;;;21.27;10.25;;;;;;;1.58;79.60;101337.91;5026756;28;20054;-61
2024/01/19 01:54:14;;;;;;;20.23;11.85;;;;;;;1.49;79.46;101331.19;5035993;28;20057;-60
2024/01/19 01:56:41;;;;;;;24.02;11.65;;;;;;;1.61;79.44;101338.25;5040609;28;20071;-58
2024/01/19 01:59:09;;;;;;;25.00;11.77;;;;;;;1.50;78.80;101339.09;5029211;28;20064;-57
2024/01/19 02:01:36;;;;;;;20.80;10.73;;;;;;;1.53;79.34;101343.25;5037027;28;20064;-56
2024/01/19 02:04:04;;;;;;;22.67;10.55;;;;;;;1.45;79.43;101341.72;5027419;28;20057;-58
2024/01/19 02:06:31;;;;;;;26.95;12.10;;;;;;;1.44;79.66;101339.22;5045138;28;20058;-61
2024/01/19 02:08:59;;;;;;;19.67;11.02;;;;;;;1.31;79.88;101337.59;5049016;28;20053;-58
2024/01/19 02:11:26;;;;;;;20.98;11.82;;;;;;;1.40;79.53;101344.31;5035120;28;20132;-57
2024/01/19 02:13:54;;;;;;;21.42;11.90;;;;;;;1.46;79.34;101342.53;5044051;28;20056;-56
2024/01/19 02:16:21;;;;;;;22.35;10.57;;;;;;;1.14;80.31;101342.94;5044203;28;20049;-58
2024/01/19 02:18:48;;;;;;;19.17;10.98;;;;;;;1.01;80.78;101347.78;5039494;28;20527;-57
2024/01/19 02:21:15;;;;;;;19.98;11.00;;;;;;;1.18;81.11;101348.72;5028971;28;20137;-55
2024/01/19 02:23:58;;;;;;;19.58;11.05;;;;;;;1.25;80.64;101354.00;5038077;28;20532;-58
2024/01/19 02:26:25;;;;;;;20.75;10.50;;;;;;;1.27;80.29;101355.44;5042522;28;20057;-59
2024/01/19 02:28:52;;;;;;;19.95;10.60;;;;;;;1.16;80.52;101358.97;5040177;28;20053;-57
2024/01/19 02:31:20;;;;;;;21.05;10.50;;;;;;;1.12;80.71;101368.63;5048167;28;20052;-59
2024/01/19 02:33:48;;;;;;;19.50;10.20;;;;;;;1.04;80.99;101360.84;5040469;28;20056;-59
2024/01/19 02:36:15;;;;;;;18.75;10.43;;;;;;;1.35;81.07;101357.78;5033371;28;20049;-58
2024/01/19 02:38:42;;;;;;;24.02;10.98;;;;;;;1.28;80.10;101356.22;5028639;28;20060;-59
2024/01/19 02:41:10;;;;;;;21.55;10.50;;;;;;;1.23;80.52;101356.13;5036976;28;20049;-58
2024/01/19 02:43:37;;;;;;;19.98;10.75;;;;;;;1.25;80.40;101364.84;5026777;28;20092;-57
2024/01/19 02:46:04;;;;;;;16.10;9.77;;;;;;;1.15;80.41;101360.84;5028709;28;20064;-61
2024/01/19 02:48:32;;;;;;;17.67;9.95;;;;;;;1.15;80.35;101373.59;5028467;28;20378;-59
2024/01/19 02:50:59;;;;;;;20.35;10.48;;;;;;;0.93;80.78;101372.50;5027989;28;20482;-58
2024/01/19 02:53:26;;;;;;;16.48;10.13;;;;;;;0.69;81.86;101368.94;5024321;28;20067;-58
2024/01/19 02:55:53;;;;;;;21.13;10.30;;;;;;;0.71;82.14;101377.69;5029196;28;20749;-58
2024/01/19 02:58:23;;;;;;;16.08;9.93;;;;;;;0.62;82.82;101378.22;5033329;28;20056;-60
2024/01/19 03:00:50;;;;;;;20.80;10.75;;;;;;;0.86;82.73;101377.22;5023494;28;20061;-60
2024/01/19 03:03:17;;;;;;;19.75;10.80;;;;;;;0.79;82.09;101373.78;5041403;28;20616;-58
2024/01/19 03:05:45;;;;;;;19.75;10.65;;;;;;;0.78;82.73;101372.97;5035608;28;20053;-59
2024/01/19 03:08:12;;;;;;;16.92;10.35;;;;;;;0.87;82.63;101366.13;5048302;28;20045;-58
2024/01/19 03:10:39;;;;;;;16.75;10.32;;;;;;;0.94;81.92;101358.72;5048744;28;20053;-57
2024/01/19 03:13:06;;;;;;;23.60;10.95;;;;;;;0.99;82.09;101368.88;5047698;28;20083;-57
2024/01/19 03:15:34;;;;;;;18.90;10.13;;;;;;;1.17;81.78;101375.00;5026590;28;20507;-57
2024/01/19 03:18:02;;;;;;;18.60;11.07;;;;;;;1.16;80.93;101377.94;5047694;28;20063;-59
2024/01/19 03:20:29;;;;;;;23.10;10.50;;;;;;;1.00;81.36;101381.34;5046673;28;20057;-60
2024/01/19 03:22:56;;;;;;;20.05;10.57;;;;;;;1.05;81.63;101384.19;5035488;28;20049;-59
2024/01/19 03:25:23;;;;;;;17.05;10.15;;;;;;;1.25;81.41;101383.84;5047744;28;20048;-59
2024/01/19 03:27:51;;;;;;;19.48;10.63;;;;;;;1.30;80.84;101382.09;5039719;28;20049;-59
2024/01/19 03:30:19;;;;;;;19.92;10.93;;;;;;;1.28;80.71;101377.94;5034241;28;20061;-58
2024/01/19 03:32:46;;;;;;;17.92;10.77;;;;;;;1.14;81.36;101377.34;5049771;28;20064;-57
2024/01/19 03:35:14;;;;;;;18.60;11.38;;;;;;;0.99;81.17;101385.94;5035666;28;20046;-60
2024/01/19 03:37:41;;;;;;;16.63;10.15;;;;;;;1.31;80.55;101386.44;5038021;28;20049;-58
2024/01/19 03:40:10;;;;;;;18.58;11.55;;;;;;;1.06;80.77;101388.56;5025216;28;20065;-60
2024/01/19 03:42:37;;;;;;;24.45;11.85;;;;;;;1.12;81.19;101399.31;5032121;28;20060;-57
2024/01/19 03:45:05;;;;;;;19.60;11.10;;;;;;;1.33;80.80;101403.31;5031635;28;20317;-59
2024/01/19 03:47:32;;;;;;;22.63;11.48;;;;;;;0.92;81.68;101401.50;5031318;28;20057;-59
2024/01/19 03:50:01;;;;;;;19.92;11.75;;;;;;;1.12;81.07;101404.72;5031628;28;20061;-59
2024/01/19 03:52:28;;;;;;;19.80;11.20;;;;;;;1.14;80.81;101399.91;5021811;28;20064;-56
2024/01/19 03:54:55;;;;;;;19.58;11.93;;;;;;;1.10;81.02;101409.56;5031521;28;20130;-55
2024/01/19 03:57:23;;;;;;;22.17;11.60;;;;;;;1.20;81.16;101403.56;5041239;28;20049;-58
2024/01/19 03:59:50;;;;;;;22.52;11.57;;;;;;;0.94;81.45;101414.84;5038969;28;20050;-58
2024/01/19 04:02:17;;;;;;;21.52;11.35;;;;;;;1.17;81.68;101411.34;5054953;28;20520;-56
2024/01/19 04:04:45;;;;;;;16.48;10.32;;;;;;;1.21;81.22;101402.50;5040899;28;20067;-58
2024/01/19 04:07:12;;;;;;;17.85;11.25;;;;;;;1.28;81.03;101411.34;5051035;28;20067;-58
2024/01/19 04:09:40;;;;;;;18.35;11.13;;;;;;;1.26;80.38;101412.63;5051176;28;20053;-59
2024/01/19 04:12:15;;;;;;;19.80;11.05;;;;;;;1.08;80.62;101417.09;5037897;28;20052;-55
2024/01/19 04:14:44;;;;;;;23.23;11.70;;;;;;;1.22;81.17;101419.59;5025064;28;20064;-56
2024/01/19 04:17:11;;;;;;;21.63;11.10;;;;;;;1.23;80.51;101418.53;5048545;28;20040;-59
2024/01/19 04:19:40;;;;;;;21.00;11.57;;;;;;;0.92;81.41;101423.19;5035838;28;20084;-58
2024/01/19 04:22:07;;;;;;;17.40;10.60;;;;;;;0.92;82.08;101414.25;5037312;28;20053;-57
2024/01/19 04:24:34;;;;;;;21.08;11.48;;;;;;;1.13;82.10;101421.84;5038115;28;20080;-58
2024/01/19 04:27:02;;;;;;;22.20;11.48;;;;;;;1.25;81.90;101432.69;5050823;28;20057;-57
2024/01/19 04:29:29;;;;;;;20.38;11.05;;;;;;;1.45;81.46;101428.56;5037160;28;20053;-56
2024/01/19 04:31:56;;;;;;;19.58;11.45;;;;;;;1.27;81.10;101430.56;5046422;28;20053;-57
2024/01/19 04:34:23;;;;;;;23.08;11.55;;;;;;;1.26;81.75;101431.63;5036408;28;20068;-59
2024/01/19 04:36:51;;;;;;;18.13;11.50;;;;;;;1.45;81.03;101441.34;5037791;28;20061;-56
2024/01/19 04:39:18;;;;;;;18.45;10.70;;;;;;;0.94;81.66;101441.97;5038356;28;20873;-57
2024/01/19 04:41:45;;;;;;;20.38;11.55;;;;;;;0.96;82.47;101446.09;5030534;28;20052;-58
2024/01/19 04:44:14;;;;;;;23.73;12.73;;;;;;;0.96;82.74;101443.38;5030723;28;20065;-58
2024/01/19 04:46:41;;;;;;;21.33;11.95;;;;;;;1.15;82.18;101444.13;5029207;28;20068;-58
2024/01/19 04:49:08;;;;;;;20.52;11.40;;;;;;;1.24;82.26;101442.72;5030266;28;20054;-57
2024/01/19 04:51:36;;;;;;;23.45;12.35;;;;;;;1.10;82.21;101439.41;5030421;28;20654;-56
2024/01/19 04:54:05;;;;;;;20.00;11.90;;;;;;;0.98;82.11;101445.84;5021421;28;20056;-56
2024/01/19 04:56:33;;;;;;;23.95;12.00;;;;;;;0.92;82.26;101446.81;5042978;28;20052;-58
2024/01/19 04:59:01;;;;;;;22.27;12.18;;;;;;;0.79;82.89;101460.53;5024201;28;20613;-60
2024/01/19 05:01:28;;;;;;;22.00;12.98;;;;;;;0.77;83.41;101446.38;5043155;28;20527;-57
2024/01/19 05:03:55;;;;;;;21.50;12.52;;;;;;;1.08;82.47;101452.38;5034437;28;20057;-55
2024/01/19 05:06:22;;;;;;;19.95;11.75;;;;;;;1.07;81.82;101468.88;5013192;28;20065;-58
2024/01/19 05:08:50;;;;;;;19.98;11.55;;;;;;;1.29;81.84;101475.38;5022263;28;20049;-57
2024/01/19 05:11:17;;;;;;;21.17;12.38;;;;;;;1.33;81.79;101465.72;5028111;28;20060;-59
2024/01/19 05:13:45;;;;;;;22.35;11.35;;;;;;;1.20;81.62;101474.09;5039734;28;20049;-59
2024/01/19 05:16:12;;;;;;;20.38;12.20;;;;;;;1.17;81.77;101480.81;5031559;28;20053;-60
2024/01/19 05:18:40;;;;;;;21.25;11.93;;;;;;;1.09;81.75;101485.75;5042851;28;20061;-61
2024/01/19 05:21:08;;;;;;;19.27;11.98;;;;;;;1.12;81.93;101488.00;5031478;28;20049;-59
2024/01/19 05:23:35;;;;;;;20.85;12.25;;;;;;;1.32;81.75;101499.38;5038152;28;20060;-58
2024/01/19 05:26:04;;;;;;;19.90;12.35;;;;;;;1.01;80.93;101515.94;5022894;28;20057;-59
2024/01/19 05:28:33;;;;;;;21.58;11.85;;;;;;;1.07;82.08;101517.69;5030544;28;20455;-57
2024/01/19 05:31:01;;;;;;;22.67;11.95;;;;;;;1.08;81.91;101519.38;5043697;28;20070;-57
2024/01/19 05:33:32;;;;;;;19.42;12.93;;;;;;;0.65;82.99;101521.44;5039796;28;20045;-58
2024/01/19 05:36:03;;;;;;;22.23;12.00;;;;;;;0.35;85.43;101521.38;5031780;28;20056;-58
2024/01/19 05:38:31;;;;;;;19.85;12.35;;;;;;;0.47;85.82;101518.75;5025898;28;20053;-56
2024/01/19 05:41:02;;;;;;;23.48;13.40;;;;;;;0.49;85.83;101513.94;5031227;28;20060;-60
2024/01/19 05:43:30;;;;;;;22.10;12.98;;;;;;;0.09;86.35;101524.41;5022884;28;20053;-60
2024/01/19 05:45:57;;;;;;;23.27;12.50;;;;;;;0.28;87.70;101520.63;5022897;28;20053;-57
2024/01/19 05:48:27;;;;;;;21.63;13.30;;;;;;;0.47;86.22;101522.28;5023213;28;20441;-58
2024/01/19 05:50:55;;;;;;;23.05;13.18;;;;;;;0.45;86.56;101526.28;5028992;28;20053;-58
2024/01/19 05:53:22;;;;;;;28.88;13.10;;;;;;;0.34;86.82;101525.16;5022444;28;20061;-57
2024/01/19 05:55:49;;;;;;;27.80;14.38;;;;;;;0.27;86.91;101532.53;5022903;28;20050;-56
2024/01/19 05:58:17;;;;;;;28.02;13.40;;;;;;;0.60;86.63;101537.56;5033389;28;20182;-53
2024/01/19 06:00:44;;;;;;;23.25;14.10;;;;;;;0.72;85.26;101541.16;5027131;28;20839;-54
2024/01/19 06:03:11;;;;;;;22.60;13.50;;;;;;;0.67;85.36;101539.13;5047257;28;20749;-55
2024/01/19 06:05:39;;;;;;;24.85;12.98;;;;;;;0.89;84.70;101548.41;5048522;28;20052;-54
2024/01/19 06:08:06;;;;;;;25.52;13.32;;;;;;;0.99;83.44;101547.88;5049091;28;20049;-54
2024/01/19 06:10:34;;;;;;;26.63;13.77;;;;;;;0.99;83.64;101550.59;5035883;28;20049;-56
2024/01/19 06:13:01;;;;;;;23.73;13.75;;;;;;;0.72;83.14;101541.97;5049096;28;20378;-54
2024/01/19 06:15:28;;;;;;;22.23;13.30;;;;;;;0.91;83.28;101553.59;5045875;28;20437;-55
2024/01/19 06:17:56;;;;;;;26.52;14.48;;;;;;;0.91;83.39;101559.03;5042056;28;20064;-55
2024/01/19 06:20:23;;;;;;;23.45;13.60;;;;;;;0.86;83.68;101564.31;5042183;28;20064;-55
2024/01/19 06:22:50;;;;;;;23.83;13.55;;;;;;;0.82;83.44;101563.94;5048821;28;20053;-54
2024/01/19 06:25:18;;;;;;;25.80;14.40;;;;;;;1.14;83.32;101565.38;5048414;28;20064;-55
2024/01/19 06:27:45;;;;;;;27.08;13.90;;;;;;;1.24;82.95;101570.25;5046634;28;20061;-56
2024/01/19 06:30:13;;;;;;;24.45;15.07;;;;;;;1.07;81.76;101570.06;5025001;28;20064;-56
2024/01/19 06:32:41;;;;;;;25.90;14.77;;;;;;;1.04;82.43;101578.69;5027643;28;20564;-56
2024/01/19 06:35:08;;;;;;;25.20;14.20;;;;;;;1.15;82.18;101586.03;5031822;28;20065;-55
2024/01/19 06:37:37;;;;;;;26.80;13.70;;;;;;;0.96;83.00;101583.56;5030272;28;20056;-55
2024/01/19 06:40:07;;;;;;;25.80;13.93;;;;;;;0.94;82.63;101589.22;5028263;28;20409;-56
2024/01/19 06:42:34;;;;;;;23.40;14.43;;;;;;;0.52;84.09;101598.34;5025054;28;20526;-57
2024/01/19 06:45:01;;;;;;;26.40;13.63;;;;;;;0.50;84.86;101602.31;5020925;28;20068;-57
2024/01/19 06:47:29;;;;;;;28.90;14.50;;;;;;;0.73;84.91;101608.69;5028628;28;20080;-55
2024/01/19 06:49:57;;;;;;;24.33;15.30;;;;;;;0.81;83.46;101610.28;5033672;28;20075;-58
2024/01/19 06:52:24;;;;;;;24.23;14.10;;;;;;;0.89;83.44;101605.38;5027077;28;20048;-59
2024/01/19 06:54:52;;;;;;;23.85;14.15;;;;;;;0.80;83.26;101608.63;5020657;28;20190;-55
2024/01/19 06:57:19;;;;;;;23.33;13.98;;;;;;;0.80;83.57;101616.78;5024381;28;20057;-56
2024/01/19 06:59:47;;;;;;;25.33;14.60;;;;;;;0.97;83.49;101612.38;5006698;28;20069;-56
2024/01/19 07:02:14;;;;;;;24.70;14.93;;;;;;;0.73;83.16;101621.44;5049568;28;20064;-60
2024/01/19 07:04:41;;;;;;;28.50;14.15;;;;;;;0.71;84.08;101624.38;5026381;28;20060;-54
2024/01/19 07:07:09;;;;;;;31.23;14.77;;;;;;;0.80;83.94;101627.63;5042716;28;20053;-54
2024/01/19 07:09:37;;;;;;;27.98;14.65;;;;;;;0.69;83.44;101626.50;5016732;28;20572;-54
2024/01/19 07:12:05;;;;;;;27.10;14.15;;;;;;;0.81;83.68;101623.84;5031524;28;20828;-55
2024/01/19 07:14:32;;;;;;;27.83;15.80;;;;;;;1.13;83.53;101625.31;5027429;28;20052;-54
2024/01/19 07:16:59;;;;;;;32.97;15.45;;;;;;;1.12;82.85;101624.47;5036901;28;20064;-57
2024/01/19 07:19:27;;;;;;;23.75;14.57;;;;;;;0.97;82.41;101624.06;5037216;28;20049;-56
2024/01/19 07:21:54;;;;;;;24.58;15.27;;;;;;;0.95;82.46;101638.88;5030115;28;20054;-54
2024/01/19 07:24:21;;;;;;;22.27;13.98;;;;;;;1.03;82.21;101638.56;5036421;28;20045;-55
2024/01/19 07:26:49;;;;;;;30.20;14.82;;;;;;;1.19;82.21;101637.94;5033781;28;20871;-57
2024/01/19 07:29:17;;;;;;;23.33;14.93;;;;;;;1.02;81.85;101645.91;5027233;28;20050;-53
2024/01/19 07:31:45;;;;;;;26.40;14.90;;;;;;;0.94;82.70;101642.66;5040756;28;20072;-52
2024/01/19 07:34:12;;;;;;;31.20;15.32;;;;;;;1.01;82.69;101636.09;5024785;28;20525;-55
2024/01/19 07:36:40;;;;;;;27.30;15.02;;;;;;;0.71;82.72;101643.38;5030356;28;20515;-55
2024/01/19 07:39:07;;;;;;;26.70;14.65;;;;;;;0.75;83.84;101646.44;5025046;28;20508;-55
2024/01/19 07:41:34;;;;;;;24.10;15.68;;;;;;;0.69;83.54;101652.75;5046394;28;20052;-54
2024/01/19 07:44:02;;;;;;;29.25;15.63;;;;;;;0.88;83.52;101659.84;5029956;28;20071;-59
2024/01/19 07:46:29;;;;;;;22.60;15.35;;;;;;;1.15;83.03;101662.00;5032652;28;20048;-54
2024/01/19 07:48:56;;;;;;;32.35;16.42;;;;;;;0.64;83.29;101668.88;5040889;28;20499;-54
2024/01/19 07:51:32;;;;;;;25.08;15.35;;;;;;;0.62;84.12;101673.69;5029442;28;20496;-54
2024/01/19 07:54:03;;;;;;;26.77;15.93;;;;;;;0.72;84.13;101687.53;5028064;28;20058;-53
2024/01/19 07:56:30;;;;;;;28.10;16.52;;;;;;;0.90;83.72;101682.97;5025687;28;20069;-55
2024/01/19 07:58:58;;;;;;;31.52;16.17;;;;;;;1.00;82.82;101685.13;5023145;28;20050;-56
2024/01/19 08:01:25;;;;;;;33.28;16.88;;;;;;;0.88;82.28;101693.22;5021543;28;20068;-54
2024/01/19 08:03:52;;;;;;;29.92;16.77;;;;;;;0.91;82.88;101697.34;5032569;28;20049;-58
2024/01/19 08:06:20;;;;;;;26.67;15.98;;;;;;;1.06;82.78;101697.81;5040003;28;20060;-57
2024/01/19 08:08:47;;;;;;;27.02;17.85;;;;;;;0.96;82.61;101703.75;5046319;28;20065;-56
2024/01/19 08:11:14;;;;;;;30.52;15.90;;;;;;;1.37;83.11;101708.47;5031321;28;20073;-58
2024/01/19 08:13:41;;;;;;;30.88;16.92;;;;;;;1.47;81.65;101707.91;5018528;28;20065;-59
2024/01/19 08:16:09;;;;;;;30.65;16.77;;;;;;;1.01;81.39;101711.22;5026889;28;20057;-57
2024/01/19 08:18:36;;;;;;;27.67;17.02;;;;;;;0.87;81.68;101718.66;5036278;28;20064;-57
2024/01/19 08:21:04;;;;;;;26.60;16.98;;;;;;;0.88;82.51;101714.06;5033665;28;20052;-58
2024/01/19 08:23:33;;;;;;;30.00;16.98;;;;;;;0.63;83.45;101719.53;5024035;28;20046;-58
2024/01/19 08:26:03;;;;;;;27.40;16.15;;;;;;;0.74;83.38;101723.41;5013594;28;20417;-59
2024/01/19 08:28:33;;;;;;;27.98;17.75;;;;;;;1.02;83.10;101734.56;5025804;28;20045;-58
2024/01/19 08:31:12;;;;;;;29.95;16.55;;;;;;;0.64;83.18;101731.22;5032229;28;20041;-56
2024/01/19 08:33:49;;;;;;;29.20;16.42;;;;;;;0.74;84.02;101742.38;5025921;28;20492;-56
2024/01/19 08:36:17;;;;;;;26.30;16.55;;;;;;;0.92;82.94;101743.22;5033853;28;20053;-60
2024/01/19 08:38:44;;;;;;;35.72;16.58;;;;;;;0.62;83.71;101742.31;5031996;28;20432;-58
2024/01/19 08:41:11;;;;;;;30.20;16.85;;;;;;;0.71;84.12;101746.38;5025463;28;20704;-57
2024/01/19 08:43:41;;;;;;;26.05;16.35;;;;;;;0.65;84.05;101762.69;5027310;28;20046;-56
2024/01/19 08:46:08;;;;;;;26.25;17.33;;;;;;;0.79;84.06;101745.25;5024657;28;20068;-55
2024/01/19 08:48:35;;;;;;;32.22;17.42;;;;;;;0.48;84.66;101759.72;5015785;28;20077;-59
2024/01/19 08:51:03;;;;;;;29.45;17.90;;;;;;;0.62;85.37;101763.97;5027046;28;20057;-57
2024/01/19 08:53:30;;;;;;;30.00;17.73;;;;;;;0.52;85.19;101777.22;5040230;28;20053;-55
2024/01/19 08:55:57;;;;;;;28.40;18.35;;;;;;;0.34;85.67;101776.31;5020869;28;20049;-57
2024/01/19 08:58:25;;;;;;;28.83;18.42;;;;;;;0.38;86.35;101778.38;5042398;28;20048;-55
2024/01/19 09:00:52;;;;;;;31.02;18.98;;;;;;;0.54;86.38;101779.69;5029006;28;20050;-57
2024/01/19 09:03:22;;;;;;;31.50;19.60;;;;;;;0.72;85.78;101777.84;5030995;28;20064;-57
2024/01/19 09:05:52;;;;;;;41.40;23.60;;;;;;;0.90;85.86;101777.91;5024547;28;20503;-54
2024/01/19 09:08:19;;;;;;;35.72;20.65;;;;;;;1.21;84.89;101781.50;5028232;28;20057;-65
2024/01/19 09:10:46;;;;;;;34.33;20.20;;;;;;;1.17;83.10;101786.56;5029604;28;20053;-61
2024/01/19 09:13:13;;;;;;;30.17;18.33;;;;;;;1.14;83.35;101797.88;5033252;28;20064;-61
2024/01/19 09:15:41;;;;;;;30.77;19.15;;;;;;;0.92;83.98;101797.47;5029928;28;20049;-59
2024/01/19 09:18:08;;;;;;;41.55;18.17;;;;;;;1.02;83.77;101797.81;5021999;28;20050;-59
2024/01/19 09:20:35;;;;;;;35.25;19.55;;;;;;;0.86;84.42;101803.78;5026443;28;20057;-57
2024/01/19 09:23:03;;;;;;;32.25;19.77;;;;;;;1.26;84.33;101808.78;5018716;28;20058;-58
2024/01/19 09:25:31;;;;;;;34.33;18.42;;;;;;;1.22;83.52;101808.41;5030294;28;20049;-55
2024/01/19 09:27:58;;;;;;;34.47;19.85;;;;;;;1.06;83.15;101800.91;5039005;28;21042;-56
2024/01/19 09:30:26;;;;;;;36.83;19.77;;;;;;;0.88;84.42;101806.28;5032077;28;20606;-57
2024/01/19 09:32:53;;;;;;;30.63;19.58;;;;;;;0.93;85.09;101810.00;5027210;28;20053;-56
2024/01/19 09:35:23;;;;;;;;;;;;;;;1.42;84.18;101814.47;5030256;28;20053;-56
2024/01/19 09:37:51;;;;;;;49.38;25.58;;;;;;;1.56;83.29;101807.81;5030687;28;19932;-56
2024/01/19 09:40:20;;;;;;;37.40;24.33;;;;;;;1.61;82.86;101809.84;5032421;28;20064;-59
2024/01/19 09:42:49;;;;;;;27.27;18.13;;;;;;;1.46;82.20;101814.84;5023296;28;20045;-64
2024/01/19 09:45:21;;;;;;;35.60;19.48;;;;;;;1.09;83.03;101825.69;5029032;28;20494;-54
2024/01/19 09:48:02;;;;;;;34.65;20.92;;;;;;;1.02;85.01;101826.81;5042878;28;20060;-52
2024/01/19 09:50:34;;;;;;;35.97;20.48;;;;;;;1.30;84.48;101824.41;5031071;28;20053;-57
2024/01/19 09:53:34;;;;;;;33.33;19.98;;;;;;;1.46;83.65;101834.69;5044289;28;20048;-59
2024/01/19 09:56:02;;;;;;;34.90;19.55;;;;;;;1.29;84.39;101830.88;5013245;28;20065;-59
2024/01/19 09:58:43;;;;;;;56.75;21.15;;;;;;;1.40;84.52;101832.03;5035331;28;20049;-62
2024/01/19 10:01:11;;;;;;;36.42;19.80;;;;;;;1.48;84.39;101835.28;5059405;28;20049;-59
2024/01/19 10:03:39;;;;;;;29.95;18.92;;;;;;;1.56;83.85;101837.69;5030021;28;20049;-62
2024/01/19 10:06:06;;;;;;;32.42;19.13;;;;;;;1.67;83.86;101847.81;5035624;28;20049;-61
2024/01/19 10:08:36;;;;;;;34.38;19.92;;;;;;;1.84;83.21;101848.84;5037840;28;20140;-59
2024/01/19 10:11:05;;;;;;;36.45;19.15;;;;;;;1.81;82.78;101852.00;5049733;28;20135;-60
2024/01/19 10:13:48;;;;;;;;;;;;;;;;;;;;;
2024/01/19 10:16:18;;;;;;;33.30;19.50;;;;;;;2.08;82.03;101863.34;5031452;28;20080;-61
2024/01/19 10:18:46;;;;;;;30.65;19.42;;;;;;;2.17;81.28;101861.97;5033980;28;20041;-61
2024/01/19 10:21:26;;;;;;;32.53;19.65;;;;;;;2.21;81.36;101861.25;5026743;28;20053;-61
2024/01/19 10:24:20;;;;;;;32.40;19.90;;;;;;;2.63;80.29;101850.41;5027621;28;20045;-61
2024/01/19 10:26:55;;;;;;;34.92;19.73;;;;;;;2.55;79.85;101853.44;5025965;28;20057;-62
2024/01/19 10:29:23;;;;;;;35.35;20.40;;;;;;;2.36;79.94;101860.84;5020944;28;20053;-63
2024/01/19 10:31:55;;;;;;;31.80;18.83;;;;;;;2.60;79.49;101856.34;5027616;28;20056;-61
2024/01/19 10:34:23;;;;;;;32.85;19.65;;;;;;;2.34;80.13;101862.16;5038995;28;20051;-61
2024/01/19 10:36:51;;;;;;;31.50;19.10;;;;;;;2.70;79.74;101860.13;5041426;28;20055;-61
2024/01/19 10:39:23;;;;;;;32.97;19.85;;;;;;;2.77;79.15;101865.47;5035254;28;20062;-61
2024/01/19 10:41:51;;;;;;;35.40;20.55;;;;;;;2.52;79.45;101864.81;5028871;28;20053;-63
2024/01/19 10:44:21;;;;;;;36.40;20.15;;;;;;;2.75;80.18;101864.84;5021549;28;20046;-60
2024/01/19 10:46:50;;;;;;;37.10;20.95;;;;;;;2.89;79.25;101866.31;5033820;28;20052;-60
2024/01/19 10:49:17;;;;;;;36.03;18.95;;;;;;;2.90;78.24;101865.22;5019306;28;20053;-61
2024/01/19 10:51:45;;;;;;;42.00;19.00;;;;;;;2.59;79.60;101866.38;5024785;28;20058;-62
2024/01/19 10:54:24;;;;;;;34.63;19.05;;;;;;;2.80;79.48;101863.09;5025934;28;20049;-62
2024/01/19 10:57:03;;;;;;;31.15;17.73;;;;;;;2.83;78.50;101859.06;5030889;28;20064;-62
2024/01/19 10:59:31;;;;;;;33.38;17.80;;;;;;;2.66;79.36;101861.66;5017592;28;20076;-61
2024/01/19 11:02:02;;;;;;;30.15;17.40;;;;;;;2.87;78.87;101857.53;5026787;28;20063;-61
2024/01/19 11:04:32;;;;;;;36.08;19.23;;;;;;;2.88;79.29;101861.91;5027622;28;20060;-60
2024/01/19 11:07:00;;;;;;;47.25;26.50;;;;;;;3.48;80.46;101860.63;5027486;28;20057;-61
2024/01/19 11:09:27;;;;;;;51.72;31.67;;;;;;;3.49;78.07;101851.38;5027293;28;20053;-62
2024/01/19 11:12:00;;;;;;;52.00;30.30;;;;;;;3.59;77.65;101848.88;5026395;28;20060;-60
2024/01/19 11:14:28;;;;;;;31.83;19.25;;;;;;;3.50;76.87;101855.75;5031283;28;20057;-65
2024/01/19 11:16:56;;;;;;;34.05;19.58;;;;;;;3.70;76.24;101856.19;5040005;28;20099;-60
2024/01/19 11:19:24;;;;;;;33.22;19.02;;;;;;;3.59;75.83;101858.94;5036101;28;20049;-62
2024/01/19 11:21:52;;;;;;;32.45;18.73;;;;;;;3.63;75.96;101858.22;5036078;28;20049;-59
2024/01/19 11:24:20;;;;;;;35.53;20.58;;;;;;;3.56;75.24;101856.72;5037278;28;20124;-58